Time;durP1;ratioP1;P1;durP2;ratioP2;P2;SDS_P1;SDS_P2;PMS_P1;PMS_P2;Temp;Humidity;BMP_temperature;BMP_pressure;BME280_temperature;BME280_humidity;BME280_pressure;Samples;Min_cycle;Max_cycle;Signal;HPM_P1;HPM_P2
2021/07/07 00:01:50;;;;;;;4.68;1.33;;;15.30;83.40;;;;;;5071494;28;20024;-83
2021/07/07 00:04:15;;;;;;;6.70;1.45;;;15.20;84.30;;;;;;5055716;28;20032;-84
2021/07/07 00:06:41;;;;;;;5.40;1.50;;;15.20;85.10;;;;;;5070686;28;20043;-83
2021/07/07 00:09:06;;;;;;;4.88;2.17;;;15.10;84.40;;;;;;5072170;28;20054;-84
2021/07/07 00:11:32;;;;;;;2.80;1.40;;;15.00;86.10;;;;;;5071752;28;20495;-84
2021/07/07 00:13:57;;;;;;;6.53;1.80;;;15.00;83.70;;;;;;5054100;28;20032;-85
2021/07/07 00:16:23;;;;;;;5.20;1.40;;;14.90;84.00;;;;;;5070008;28;20065;-84
2021/07/07 00:18:48;;;;;;;1.65;1.00;;;14.90;83.50;;;;;;5088169;28;20097;-84
2021/07/07 00:21:14;;;;;;;3.53;1.70;;;14.90;83.90;;;;;;5054902;28;20028;-85
2021/07/07 00:23:39;;;;;;;2.90;1.52;;;14.90;83.00;;;;;;5079295;28;20074;-85
2021/07/07 00:26:05;;;;;;;5.53;1.27;;;14.80;84.40;;;;;;5068122;28;20032;-84
2021/07/07 00:28:30;;;;;;;8.10;2.30;;;14.80;84.40;;;;;;5090635;28;20032;-84
2021/07/07 00:30:56;;;;;;;6.35;2.15;;;14.70;83.70;;;;;;5074417;28;20169;-84
2021/07/07 00:33:22;;;;;;;3.90;1.40;;;14.70;84.00;;;;;;5071458;28;20148;-84
2021/07/07 00:35:47;;;;;;;6.20;1.60;;;14.50;83.60;;;;;;5071091;28;20117;-83
2021/07/07 00:38:13;;;;;;;4.85;1.45;;;14.50;83.40;;;;;;5071318;28;20031;-84
2021/07/07 00:40:40;;;;;;;9.07;1.60;;;14.40;83.10;;;;;;5073223;27;20510;-84
2021/07/07 00:43:05;;;;;;;4.00;1.67;;;14.30;83.10;;;;;;5067828;28;20031;-84
2021/07/07 00:45:31;;;;;;;6.85;1.70;;;14.20;84.20;;;;;;5069919;28;20138;-83
2021/07/07 00:47:56;;;;;;;7.05;2.10;;;14.10;84.00;;;;;;5070208;28;20032;-84
2021/07/07 00:50:23;;;;;;;5.95;1.90;;;14.00;85.30;;;;;;5070029;28;20036;-83
2021/07/07 00:52:48;;;;;;;8.23;2.35;;;13.80;85.90;;;;;;5069757;28;20077;-84
2021/07/07 00:55:15;;;;;;;10.15;2.50;;;13.70;86.50;;;;;;5069040;28;20036;-84
2021/07/07 00:57:44;;;;;;;6.43;2.70;;;13.70;89.60;;;;;;5070137;28;20032;-84
2021/07/07 01:00:14;;;;;;;4.15;2.20;;;13.70;91.20;;;;;;5086441;28;20529;-84
2021/07/07 01:02:41;;;;;;;3.63;2.40;;;13.70;87.60;;;;;;5071101;28;20032;-84
2021/07/07 01:05:08;;;;;;;5.72;1.90;;;13.60;87.50;;;;;;5063177;28;20388;-84
2021/07/07 01:07:33;;;;;;;6.35;1.92;;;13.60;88.90;;;;;;5085103;28;20056;-84
2021/07/07 01:09:59;;;;;;;4.75;2.40;;;13.70;88.40;;;;;;5071372;28;20109;-84
2021/07/07 01:12:26;;;;;;;3.00;1.58;;;13.70;87.60;;;;;;5052380;28;20119;-84
2021/07/07 01:14:53;;;;;;;6.22;2.78;;;13.80;88.30;;;;;;5070097;28;20024;-83
2021/07/07 01:17:19;;;;;;;6.93;2.28;;;13.70;87.20;;;;;;5054500;28;20074;-83
2021/07/07 01:19:45;;;;;;;7.85;2.42;;;13.50;86.60;;;;;;5086384;28;20028;-83
2021/07/07 01:22:10;;;;;;;4.72;2.53;;;13.50;86.80;;;;;;5066563;28;20040;-84
2021/07/07 01:24:36;;;;;;;9.68;2.50;;;13.50;87.10;;;;;;5058974;28;20540;-83
2021/07/07 01:27:02;;;;;;;8.20;2.00;;;13.50;87.70;;;;;;5070488;28;20503;-83
2021/07/07 01:29:27;;;;;;;4.53;2.30;;;13.60;87.30;;;;;;5070723;28;20036;-83
2021/07/07 01:31:53;;;;;;;3.63;2.50;;;13.60;86.70;;;;;;5051999;28;20035;-83
2021/07/07 01:34:18;;;;;;;6.50;2.63;;;13.60;86.20;;;;;;5072792;28;20024;-83
2021/07/07 01:36:44;;;;;;;9.32;2.25;;;13.50;88.80;;;;;;5072862;28;20032;-83
2021/07/07 01:39:10;;;;;;;6.97;2.60;;;13.40;87.80;;;;;;5071801;28;20092;-83
2021/07/07 01:41:37;;;;;;;4.40;2.20;;;13.30;88.40;;;;;;5052700;28;20040;-83
2021/07/07 01:44:03;;;;;;;6.07;1.90;;;13.40;88.40;;;;;;5084860;28;20032;-83
2021/07/07 01:46:29;;;;;;;4.57;2.17;;;13.40;87.90;;;;;;5052503;28;20039;-83
2021/07/07 01:48:54;;;;;;;7.07;3.10;;;13.40;88.20;;;;;;5068305;28;20036;-83
2021/07/07 01:51:20;;;;;;;4.25;2.70;;;13.30;90.20;;;;;;5086232;28;20024;-83
2021/07/07 01:53:46;;;;;;;4.78;2.70;;;13.30;90.10;;;;;;5086301;28;20043;-83
2021/07/07 01:56:12;;;;;;;4.28;2.78;;;13.10;90.80;;;;;;5069554;28;20093;-82
2021/07/07 01:58:37;;;;;;;5.20;3.25;;;13.10;90.10;;;;;;5085869;28;20491;-83
2021/07/07 02:01:04;;;;;;;5.07;1.85;;;13.20;90.30;;;;;;5067284;28;20032;-83
2021/07/07 02:03:30;;;;;;;4.00;1.95;;;13.20;90.00;;;;;;5088068;28;20060;-83
2021/07/07 02:05:55;;;;;;;3.78;2.00;;;13.30;88.80;;;;;;5069476;28;20066;-83
2021/07/07 02:08:21;;;;;;;5.43;2.03;;;13.30;89.70;;;;;;5055362;28;20092;-82
2021/07/07 02:10:46;;;;;;;4.97;2.00;;;13.30;90.00;;;;;;5053089;28;20028;-83
2021/07/07 02:13:12;;;;;;;4.15;1.90;;;13.30;90.20;;;;;;5083512;28;20097;-83
2021/07/07 02:15:38;;;;;;;7.03;2.97;;;13.20;90.70;;;;;;5069603;28;20036;-82
2021/07/07 02:18:04;;;;;;;8.40;2.70;;;13.30;92.00;;;;;;5061613;28;20143;-83
2021/07/07 02:20:31;;;;;;;6.10;2.58;;;13.10;92.00;;;;;;5040039;28;20046;-82
2021/07/07 02:22:57;;;;;;;5.68;2.10;;;13.10;91.90;;;;;;5068789;28;20089;-82
2021/07/07 02:25:24;;;;;;;6.20;2.90;;;13.10;91.80;;;;;;5056236;28;20444;-83
2021/07/07 02:27:50;;;;;;;4.80;2.05;;;13.00;91.60;;;;;;5054656;28;20032;-83
2021/07/07 02:30:18;;;;;;;9.45;3.08;;;13.00;91.90;;;;;;5070484;28;20032;-83
2021/07/07 02:32:43;;;;;;;9.07;2.80;;;13.00;92.00;;;;;;5083904;28;20031;-82
2021/07/07 02:35:11;;;;;;;7.18;2.75;;;13.00;92.10;;;;;;5067557;28;20389;-83
2021/07/07 02:37:36;;;;;;;10.95;3.58;;;12.90;93.20;;;;;;5085810;28;20028;-83
2021/07/07 02:40:03;;;;;;;7.40;3.00;;;12.80;93.50;;;;;;5067371;28;20147;-79
2021/07/07 02:42:28;;;;;;;6.18;3.08;;;12.70;93.70;;;;;;5066540;28;20039;-79
2021/07/07 02:44:54;;;;;;;5.22;3.55;;;12.70;92.70;;;;;;5067668;28;20024;-79
2021/07/07 02:47:19;;;;;;;6.35;3.33;;;12.70;93.90;;;;;;5085110;28;20487;-79
2021/07/07 02:49:45;;;;;;;7.00;3.05;;;12.60;92.80;;;;;;5067910;28;20038;-80
2021/07/07 02:52:10;;;;;;;10.68;3.03;;;12.70;91.90;;;;;;5069449;28;20093;-78
2021/07/07 02:54:36;;;;;;;6.43;2.65;;;12.70;91.50;;;;;;5066440;28;20492;-78
2021/07/07 02:57:02;;;;;;;7.30;3.10;;;12.70;92.10;;;;;;5068372;28;20032;-78
2021/07/07 02:59:27;;;;;;;4.97;3.00;;;12.70;93.30;;;;;;5068054;28;20059;-79
2021/07/07 03:01:53;;;;;;;9.93;2.72;;;12.80;92.80;;;;;;5066651;28;20032;-80
2021/07/07 03:04:19;;;;;;;5.03;2.40;;;13.00;92.60;;;;;;5049567;28;20551;-80
2021/07/07 03:06:44;;;;;;;21.17;3.63;;;12.90;92.80;;;;;;5068317;28;20040;-79
2021/07/07 03:09:10;;;;;;;6.13;2.75;;;13.00;93.80;;;;;;5069533;28;20062;-80
2021/07/07 03:11:37;;;;;;;7.07;2.33;;;13.20;92.90;;;;;;5067570;28;20062;-80
2021/07/07 03:14:03;;;;;;;3.22;1.85;;;13.20;93.10;;;;;;5072513;28;20024;-79
2021/07/07 03:16:29;;;;;;;3.63;2.20;;;13.30;92.20;;;;;;5054121;28;20527;-79
2021/07/07 03:18:54;;;;;;;6.03;2.63;;;13.30;93.10;;;;;;5050865;28;20028;-80
2021/07/07 03:21:20;;;;;;;4.75;1.98;;;13.30;93.20;;;;;;5070471;28;20031;-80
2021/07/07 03:23:45;;;;;;;7.82;2.65;;;13.30;93.00;;;;;;5068337;28;20037;-80
2021/07/07 03:26:11;;;;;;;8.57;2.72;;;13.40;93.30;;;;;;5068525;28;20028;-81
2021/07/07 03:28:36;;;;;;;8.65;2.40;;;13.40;93.10;;;;;;5061502;27;20031;-79
2021/07/07 03:31:02;;;;;;;5.95;2.22;;;13.20;93.30;;;;;;5074698;28;20050;-79
2021/07/07 03:33:27;;;;;;;5.38;1.80;;;13.30;93.50;;;;;;5070481;28;20063;-79
2021/07/07 03:35:53;;;;;;;10.00;2.60;;;13.40;93.30;;;;;;5087260;28;20055;-80
2021/07/07 03:38:19;;;;;;;4.28;2.00;;;13.50;93.10;;;;;;5072178;28;20038;-80
2021/07/07 03:40:44;;;;;;;7.60;2.45;;;13.50;92.60;;;;;;5068503;28;20061;-79
2021/07/07 03:43:10;;;;;;;4.10;1.98;;;13.50;93.50;;;;;;5072678;28;20073;-80
2021/07/07 03:45:35;;;;;;;8.70;1.98;;;13.50;93.00;;;;;;5069030;28;20449;-79
2021/07/07 03:48:01;;;;;;;7.68;2.47;;;13.50;93.40;;;;;;5070837;28;20044;-81
2021/07/07 03:50:27;;;;;;;7.70;2.30;;;13.50;93.60;;;;;;5068400;28;20035;-80
2021/07/07 03:52:53;;;;;;;7.45;2.38;;;13.50;93.20;;;;;;5072857;28;20024;-80
2021/07/07 03:55:19;;;;;;;5.43;2.15;;;13.50;93.30;;;;;;5070836;28;20455;-79
2021/07/07 03:57:45;;;;;;;6.43;2.72;;;13.60;93.40;;;;;;5052482;28;20036;-79
2021/07/07 04:00:12;;;;;;;5.97;3.30;;;13.70;93.00;;;;;;5070736;28;20097;-79
2021/07/07 04:02:38;;;;;;;5.85;2.13;;;13.60;93.20;;;;;;5068952;28;20028;-80
2021/07/07 04:05:04;;;;;;;7.03;2.17;;;13.80;93.10;;;;;;5071254;28;20387;-79
2021/07/07 04:07:30;;;;;;;5.75;1.88;;;13.80;93.20;;;;;;5056481;28;20044;-79
2021/07/07 04:09:55;;;;;;;6.38;2.28;;;13.90;93.00;;;;;;5072171;28;20069;-80
2021/07/07 04:12:21;;;;;;;7.20;1.92;;;14.00;93.60;;;;;;5053686;28;20031;-79
2021/07/07 04:14:46;;;;;;;6.15;2.20;;;14.00;92.90;;;;;;5071414;28;20368;-79
2021/07/07 04:17:12;;;;;;;4.72;1.95;;;14.10;93.70;;;;;;5069787;28;20016;-79
2021/07/07 04:19:37;;;;;;;13.95;3.40;;;14.10;93.00;;;;;;5069183;28;20387;-79
2021/07/07 04:22:03;;;;;;;4.55;2.13;;;14.10;93.00;;;;;;5085205;28;20187;-79
2021/07/07 04:24:28;;;;;;;2.67;1.63;;;14.20;93.20;;;;;;5070756;28;20431;-79
2021/07/07 04:26:54;;;;;;;10.48;2.40;;;14.20;93.20;;;;;;5072180;28;20034;-79
2021/07/07 04:29:19;;;;;;;5.72;2.40;;;14.30;93.80;;;;;;5083953;28;20036;-79
2021/07/07 04:31:45;;;;;;;5.07;1.80;;;14.30;94.10;;;;;;5052250;28;20529;-80
2021/07/07 04:34:11;;;;;;;4.47;2.00;;;14.40;93.00;;;;;;5070822;28;20089;-80
2021/07/07 04:36:36;;;;;;;4.88;2.05;;;14.50;93.00;;;;;;5071194;28;20407;-79
2021/07/07 04:39:04;;;;;;;4.25;2.13;;;14.60;92.80;;;;;;5070450;28;20074;-79
2021/07/07 04:41:29;;;;;;;8.60;2.17;;;14.80;92.80;;;;;;5067989;28;20100;-79
2021/07/07 04:43:55;;;;;;;9.10;2.72;;;14.90;93.20;;;;;;5054757;28;20051;-78
2021/07/07 04:46:20;;;;;;;6.03;2.20;;;15.00;93.20;;;;;;5086403;28;20125;-80
2021/07/07 04:48:46;;;;;;;7.88;2.50;;;15.10;93.00;;;;;;5068519;28;20078;-79
2021/07/07 04:51:12;;;;;;;8.20;2.53;;;15.20;93.50;;;;;;5068116;28;20039;-80
2021/07/07 04:53:38;;;;;;;12.93;2.97;;;15.40;92.70;;;;;;5081517;28;20072;-80
2021/07/07 04:56:04;;;;;;;5.18;2.00;;;15.50;92.20;;;;;;5053185;28;20070;-79
2021/07/07 04:58:30;;;;;;;9.02;3.17;;;15.60;92.10;;;;;;5086250;28;20052;-79
2021/07/07 05:00:55;;;;;;;4.32;1.80;;;15.70;92.30;;;;;;5067333;28;20443;-80
2021/07/07 05:03:21;;;;;;;7.38;1.80;;;15.80;92.10;;;;;;5052101;27;20028;-79
2021/07/07 05:05:46;;;;;;;6.60;2.50;;;15.90;91.60;;;;;;5056413;28;20024;-79
2021/07/07 05:08:12;;;;;;;5.65;2.45;;;16.10;91.90;;;;;;5071493;27;20214;-79
2021/07/07 05:10:38;;;;;;;8.68;2.15;;;16.30;92.20;;;;;;5085752;28;20038;-79
2021/07/07 05:13:06;;;;;;;6.25;1.90;;;16.40;91.40;;;;;;5071693;28;20632;-79
2021/07/07 05:15:33;;;;;;;5.97;1.88;;;16.40;91.30;;;;;;5086697;28;20490;-79
2021/07/07 05:17:58;;;;;;;5.40;2.15;;;16.60;91.30;;;;;;5066866;28;20447;-78
2021/07/07 05:20:24;;;;;;;10.07;2.15;;;16.80;91.40;;;;;;5066867;27;20145;-79
2021/07/07 05:22:49;;;;;;;7.80;1.88;;;17.00;91.00;;;;;;5086893;28;20119;-77
2021/07/07 05:25:16;;;;;;;5.55;2.08;;;17.00;90.80;;;;;;5084099;28;20058;-78
2021/07/07 05:27:42;;;;;;;7.55;1.90;;;17.10;91.20;;;;;;5072338;28;20416;-79
2021/07/07 05:30:08;;;;;;;4.05;2.25;;;17.40;90.70;;;;;;5069992;28;20510;-78
2021/07/07 05:32:34;;;;;;;2.97;1.95;;;17.70;90.60;;;;;;5089792;28;20409;-78
2021/07/07 05:35:00;;;;;;;5.40;1.92;;;17.60;90.60;;;;;;5055610;28;20119;-79
2021/07/07 05:37:26;;;;;;;7.30;2.30;;;17.90;90.10;;;;;;5072240;27;20032;-80
2021/07/07 05:39:52;;;;;;;6.85;2.17;;;17.80;90.30;;;;;;5072981;28;20020;-79
2021/07/07 05:42:19;;;;;;;9.80;3.22;;;18.10;90.30;;;;;;5069256;28;20422;-78
2021/07/07 05:44:45;;;;;;;6.28;1.98;;;18.20;90.00;;;;;;5048660;28;20465;-78
2021/07/07 05:47:10;;;;;;;6.25;1.92;;;18.60;89.10;;;;;;5070924;27;20111;-80
2021/07/07 05:49:36;;;;;;;4.85;2.47;;;18.70;89.20;;;;;;5066429;28;20388;-78
2021/07/07 05:52:02;;;;;;;4.30;1.80;;;18.90;88.10;;;;;;5068486;28;20040;-78
2021/07/07 05:54:28;;;;;;;8.90;2.22;;;19.10;88.10;;;;;;5068348;28;20130;-79
2021/07/07 05:56:53;;;;;;;5.93;2.17;;;19.30;88.20;;;;;;5068133;28;20029;-80
2021/07/07 05:59:19;;;;;;;8.38;1.98;;;19.50;87.30;;;;;;5067908;28;20032;-80
2021/07/07 06:01:44;;;;;;;3.80;1.75;;;19.50;87.10;;;;;;5068056;28;20032;-81
2021/07/07 06:04:10;;;;;;;3.97;1.50;;;19.50;86.60;;;;;;5051283;28;20070;-79
2021/07/07 06:06:35;;;;;;;5.55;2.17;;;19.80;87.00;;;;;;5067238;28;20503;-80
2021/07/07 06:09:01;;;;;;;6.25;1.63;;;20.60;90.40;;;;;;5070031;28;20039;-81
2021/07/07 06:11:27;;;;;;;4.18;1.48;;;20.30;85.40;;;;;;5035938;28;20447;-80
2021/07/07 06:13:53;;;;;;;6.75;1.83;;;20.10;84.40;;;;;;5066174;28;20123;-80
2021/07/07 06:16:19;;;;;;;7.47;2.22;;;20.70;85.40;;;;;;5069619;28;20051;-80
2021/07/07 06:18:44;;;;;;;8.48;1.92;;;20.50;84.20;;;;;;5068463;28;20044;-80
2021/07/07 06:21:10;;;;;;;3.65;1.70;;;20.60;83.10;;;;;;5068011;28;20092;-82
2021/07/07 06:23:35;;;;;;;10.60;2.58;;;21.40;82.40;;;;;;5068521;28;20052;-82
2021/07/07 06:26:01;;;;;;;6.20;1.67;;;22.10;89.10;;;;;;5074505;28;20466;-82
2021/07/07 06:28:26;;;;;;;6.47;1.75;;;22.30;82.10;;;;;;5091731;28;20039;-81
2021/07/07 06:30:53;;;;;;;5.93;1.85;;;22.40;83.80;;;;;;5054073;28;20032;-82
2021/07/07 06:33:19;;;;;;;6.88;1.60;;;22.10;82.00;;;;;;5057994;28;20054;-82
2021/07/07 06:35:44;;;;;;;8.15;1.98;;;22.00;79.90;;;;;;5054748;28;20023;-81
2021/07/07 06:38:10;;;;;;;2.30;1.65;;;22.10;82.70;;;;;;5072782;28;20034;-81
2021/07/07 06:40:36;;;;;;;6.45;1.65;;;22.60;86.60;;;;;;5086122;28;20484;-81
2021/07/07 06:43:03;;;;;;;7.22;2.03;;;23.00;86.80;;;;;;5071145;28;20578;-82
2021/07/07 06:45:30;;;;;;;7.72;1.80;;;23.30;81.80;;;;;;5068760;28;20085;-81
2021/07/07 06:47:55;;;;;;;10.15;2.05;;;22.70;80.30;;;;;;5047826;28;20027;-82
2021/07/07 06:50:21;;;;;;;4.82;1.30;;;22.50;79.20;;;;;;5084283;28;20020;-82
2021/07/07 06:52:46;;;;;;;5.65;1.90;;;22.80;78.30;;;;;;5061604;28;20048;-82
2021/07/07 06:55:12;;;;;;;5.88;1.65;;;22.10;78.70;;;;;;5069643;28;20026;-81
2021/07/07 06:57:38;;;;;;;8.68;1.92;;;22.30;80.90;;;;;;5067919;28;20543;-81
2021/07/07 07:00:06;;;;;;;4.97;1.50;;;22.50;78.50;;;;;;5067614;28;20032;-81
2021/07/07 07:02:32;;;;;;;5.43;1.67;;;23.20;81.70;;;;;;5065857;28;20036;-82
2021/07/07 07:04:58;;;;;;;4.95;2.00;;;23.50;78.70;;;;;;5066743;28;20024;-83
2021/07/07 07:07:27;;;;;;;10.95;2.15;;;23.00;77.20;;;;;;5066418;27;20047;-81
2021/07/07 07:09:54;;;;;;;4.70;1.88;;;22.90;83.00;;;;;;5066150;28;20024;-81
2021/07/07 07:12:20;;;;;;;4.20;1.80;;;23.20;77.30;;;;;;5050741;28;20032;-82
2021/07/07 07:14:49;;;;;;;6.90;1.75;;;23.10;76.80;;;;;;5068577;28;20055;-82
2021/07/07 07:17:15;;;;;;;5.22;1.70;;;23.60;81.60;;;;;;5068758;28;20077;-82
2021/07/07 07:19:40;;;;;;;5.22;1.80;;;24.10;78.90;;;;;;5068180;28;20032;-81
2021/07/07 07:22:06;;;;;;;6.35;2.05;;;24.10;79.00;;;;;;5066433;28;20031;-81
2021/07/07 07:24:32;;;;;;;6.75;1.95;;;24.00;77.40;;;;;;5067464;28;20035;-84
2021/07/07 07:26:57;;;;;;;6.65;1.60;;;24.20;78.20;;;;;;5065392;28;20077;-82
2021/07/07 07:29:23;;;;;;;6.50;2.38;;;24.00;78.00;;;;;;5072085;28;20055;-83
2021/07/07 07:31:49;;;;;;;7.55;1.95;;;24.60;81.10;;;;;;5053504;28;20376;-83
2021/07/07 07:34:15;;;;;;;5.28;1.60;;;24.60;74.90;;;;;;5072397;28;20050;-83
2021/07/07 07:36:41;;;;;;;5.43;1.60;;;25.10;81.10;;;;;;5070864;28;20024;-84
2021/07/07 07:39:15;;;;;;;6.68;2.00;;;24.80;75.20;;;;;;5068473;28;20058;-82
2021/07/07 07:41:41;;;;;;;3.33;1.45;;;25.50;78.20;;;;;;5080953;28;20287;-83
2021/07/07 07:44:09;;;;;;;4.30;1.70;;;25.70;74.10;;;;;;5068818;28;20056;-83
2021/07/07 07:46:35;;;;;;;3.35;1.48;;;25.80;76.20;;;;;;5065786;28;20040;-83
2021/07/07 07:49:01;;;;;;;4.32;1.75;;;25.60;78.20;;;;;;5050435;28;20039;-84
2021/07/07 07:51:27;;;;;;;5.10;1.25;;;25.50;73.80;;;;;;5051545;28;20028;-84
2021/07/07 07:53:53;;;;;;;6.45;1.52;;;25.80;72.00;;;;;;5066899;28;20032;-83
2021/07/07 07:56:18;;;;;;;8.45;1.70;;;26.20;77.40;;;;;;5068024;28;20054;-83
2021/07/07 07:58:45;;;;;;;4.30;1.67;;;26.50;74.80;;;;;;5070389;28;20078;-82
2021/07/07 08:01:11;;;;;;;2.83;1.20;;;26.40;75.60;;;;;;5067144;28;20028;-82
2021/07/07 08:03:36;;;;;;;5.65;2.00;;;26.70;71.10;;;;;;5070303;28;20038;-82
2021/07/07 08:06:02;;;;;;;5.18;1.88;;;26.90;70.60;;;;;;5071275;28;20047;-80
2021/07/07 08:08:28;;;;;;;6.30;1.52;;;26.50;73.10;;;;;;5069302;28;20036;-81
2021/07/07 08:10:53;;;;;;;5.10;1.75;;;26.10;67.70;;;;;;5073898;28;20084;-82
2021/07/07 08:13:19;;;;;;;4.72;1.20;;;26.70;72.80;;;;;;5056017;28;20028;-81
2021/07/07 08:15:44;;;;;;;5.10;1.50;;;27.50;70.10;;;;;;5072119;28;20112;-80
2021/07/07 08:18:10;;;;;;;8.93;1.60;;;27.60;67.00;;;;;;5067426;28;20599;-79
2021/07/07 08:20:35;;;;;;;2.97;1.40;;;27.20;68.70;;;;;;5069592;28;20032;-80
2021/07/07 08:23:01;;;;;;;6.72;1.38;;;27.10;66.30;;;;;;5069186;28;20396;-79
2021/07/07 08:25:26;;;;;;;6.40;1.60;;;27.20;65.60;;;;;;5052979;28;20024;-77
2021/07/07 08:27:53;;;;;;;8.20;1.90;;;27.20;69.80;;;;;;5086687;28;20016;-79
2021/07/07 08:30:19;;;;;;;6.57;1.67;;;28.00;69.90;;;;;;5068890;28;20020;-78
2021/07/07 08:32:44;;;;;;;14.55;1.85;;;28.10;67.80;;;;;;5075191;28;20056;-77
2021/07/07 08:35:10;;;;;;;4.88;1.45;;;27.80;65.70;;;;;;5089484;28;20038;-76
2021/07/07 08:37:36;;;;;;;8.10;1.67;;;27.80;64.10;;;;;;5070624;28;20444;-76
2021/07/07 08:40:03;;;;;;;3.97;1.50;;;28.20;64.50;;;;;;5070068;28;20028;-77
2021/07/07 08:42:34;;;;;;;6.63;1.98;;;27.70;62.00;;;;;;5089457;28;20040;-77
2021/07/07 08:45:00;;;;;;;8.25;1.40;;;28.20;64.90;;;;;;5071347;28;20527;-76
2021/07/07 08:47:26;;;;;;;5.90;1.75;;;27.90;60.80;;;;;;5053364;28;20032;-76
2021/07/07 08:49:51;;;;;;;5.15;1.52;;;28.20;62.40;;;;;;5086333;28;20032;-76
2021/07/07 08:52:17;;;;;;;4.00;1.45;;;27.80;61.30;;;;;;5086666;28;20025;-76
2021/07/07 08:54:46;;;;;;;7.53;1.80;;;27.50;61.10;;;;;;5070040;28;20423;-76
2021/07/07 08:57:12;;;;;;;5.75;1.52;;;28.20;61.10;;;;;;5070497;28;20507;-77
2021/07/07 08:59:37;;;;;;;6.55;1.70;;;28.80;65.50;;;;;;5086022;28;20036;-75
2021/07/07 09:02:06;;;;;;;5.95;1.60;;;28.70;59.70;;;;;;5067336;28;20122;-75
2021/07/07 09:04:34;;;;;;;5.10;1.40;;;28.80;61.60;;;;;;5083370;28;20036;-75
2021/07/07 09:07:07;;;;;;;6.38;1.20;;;29.10;63.30;;;;;;5084888;28;20092;-75
2021/07/07 09:09:53;;;;;;;4.55;1.63;;;28.80;58.30;;;;;;5065603;28;20089;-75
2021/07/07 09:12:23;;;;;;;6.93;1.77;;;29.10;61.00;;;;;;5070091;28;20028;-76
2021/07/07 09:14:50;;;;;;;5.03;1.42;;;29.20;61.00;;;;;;5084413;28;20021;-76
2021/07/07 09:17:18;;;;;;;1.95;1.42;;;29.40;57.90;;;;;;5080697;28;20043;-76
2021/07/07 09:19:44;;;;;;;8.20;1.48;;;29.10;56.10;;;;;;5049429;28;20444;-76
2021/07/07 09:22:11;;;;;;;7.68;1.65;;;29.10;57.60;;;;;;5072281;28;20119;-76
2021/07/07 09:24:42;;;;;;;4.53;1.45;;;29.10;55.80;;;;;;5066580;28;20032;-75
2021/07/07 09:27:15;;;;;;;3.72;1.20;;;29.20;55.60;;;;;;5050500;28;20057;-76
2021/07/07 09:29:54;;;;;;;6.43;1.30;;;28.60;56.80;;;;;;5049160;28;20084;-77
2021/07/07 09:32:27;;;;;;;5.32;1.52;;;28.80;56.10;;;;;;5068465;28;20036;-76
2021/07/07 09:34:56;;;;;;;3.15;1.83;;;29.10;57.60;;;;;;5086540;28;20479;-77
2021/07/07 09:37:24;;;;;;;5.15;1.60;;;29.60;55.90;;;;;;5068877;27;20100;-76
2021/07/07 09:39:50;;;;;;;7.18;1.48;;;29.90;56.70;;;;;;5054433;28;20035;-76
2021/07/07 09:42:22;;;;;;;6.00;1.33;;;30.20;56.70;;;;;;5085070;28;20089;-76
2021/07/07 09:44:48;;;;;;;6.07;1.40;;;30.30;56.30;;;;;;5049833;28;20424;-76
2021/07/07 09:47:13;;;;;;;3.55;1.52;;;30.00;55.10;;;;;;5066519;28;20114;-76
2021/07/07 09:49:39;;;;;;;7.00;1.48;;;29.90;56.70;;;;;;5052275;28;20124;-75
2021/07/07 09:52:05;;;;;;;4.78;1.63;;;30.00;54.70;;;;;;5067824;28;20563;-76
2021/07/07 09:54:30;;;;;;;4.20;1.40;;;29.70;54.70;;;;;;5086022;28;20047;-76
2021/07/07 09:56:56;;;;;;;3.28;1.60;;;29.50;55.00;;;;;;5085079;28;20031;-76
2021/07/07 09:59:21;;;;;;;2.90;1.30;;;29.70;56.00;;;;;;5066726;28;20392;-76
2021/07/07 10:01:47;;;;;;;6.95;1.70;;;29.50;54.40;;;;;;5068543;28;20115;-75
2021/07/07 10:04:14;;;;;;;5.47;1.73;;;29.60;55.40;;;;;;5083828;28;20031;-76
2021/07/07 10:06:40;;;;;;;8.70;1.27;;;29.60;56.10;;;;;;5083434;28;20036;-76
2021/07/07 10:09:06;;;;;;;2.53;1.10;;;29.30;54.20;;;;;;5083393;28;20043;-77
2021/07/07 10:11:31;;;;;;;4.65;1.00;;;29.00;55.50;;;;;;5068234;28;20048;-76
2021/07/07 10:13:57;;;;;;;4.15;1.50;;;28.70;55.20;;;;;;5057928;28;20035;-76
2021/07/07 10:16:22;;;;;;;4.30;1.38;;;29.00;56.40;;;;;;5053832;28;20031;-77
2021/07/07 10:18:48;;;;;;;3.33;1.30;;;29.00;56.20;;;;;;5069691;28;20035;-75
2021/07/07 10:21:14;;;;;;;3.28;1.20;;;28.80;56.00;;;;;;5067163;28;20078;-76
2021/07/07 10:23:39;;;;;;;4.28;1.55;;;29.00;56.80;;;;;;5085082;28;20036;-74
2021/07/07 10:26:05;;;;;;;4.78;1.30;;;29.00;56.20;;;;;;5083652;28;20081;-75
2021/07/07 10:28:31;;;;;;;4.13;1.73;;;29.00;56.40;;;;;;5066831;28;20028;-75
2021/07/07 10:30:59;;;;;;;9.45;1.63;;;29.10;56.40;;;;;;5066258;28;20051;-75
2021/07/07 10:33:35;;;;;;;4.15;1.65;;;29.10;56.10;;;;;;5084944;28;20498;-75
2021/07/07 10:36:19;;;;;;;3.95;1.48;;;29.10;56.30;;;;;;5061236;28;20461;-75
2021/07/07 10:39:03;;;;;;;3.50;1.20;;;29.30;55.70;;;;;;5086241;28;20038;-74
2021/07/07 10:41:48;;;;;;;6.15;1.92;;;29.40;55.60;;;;;;5069611;28;20050;-76
2021/07/07 10:44:22;;;;;;;5.50;2.00;;;29.30;56.20;;;;;;5087476;28;20052;-75
2021/07/07 10:46:57;;;;;;;3.25;1.50;;;29.30;55.80;;;;;;5085028;28;20035;-75
2021/07/07 10:49:25;;;;;;;4.30;1.83;;;29.40;56.10;;;;;;5060090;28;20036;-75
2021/07/07 10:51:52;;;;;;;6.65;1.42;;;29.30;55.70;;;;;;5084016;28;20386;-75
2021/07/07 10:54:22;;;;;;;5.15;1.92;;;29.40;56.20;;;;;;5083182;28;20040;-76
2021/07/07 10:56:48;;;;;;;1.90;1.13;;;29.40;56.10;;;;;;5083549;28;20036;-77
2021/07/07 10:59:40;;;;;;;4.97;1.48;;;29.20;56.20;;;;;;5084039;28;20036;-76
2021/07/07 11:02:19;;;;;;;6.53;1.52;;;29.70;57.50;;;;;;5083373;28;20070;-76
2021/07/07 11:04:59;;;;;;;4.70;1.63;;;30.20;56.60;;;;;;5077002;28;20024;-76
2021/07/07 11:07:40;;;;;;;5.40;1.50;;;30.50;56.20;;;;;;5067194;28;20403;-76
2021/07/07 11:10:13;;;;;;;2.47;1.13;;;30.50;57.00;;;;;;5049964;28;20034;-77
2021/07/07 11:12:42;;;;;;;4.28;1.65;;;30.80;56.10;;;;;;5081284;28;20504;-76
2021/07/07 11:15:07;;;;;;;3.20;1.33;;;31.20;55.50;;;;;;5090349;28;20028;-76
2021/07/07 11:17:34;;;;;;;3.38;1.40;;;31.30;53.90;;;;;;5087308;28;20029;-77
2021/07/07 11:20:05;;;;;;;3.65;1.20;;;30.70;52.30;;;;;;5084897;28;20130;-76
2021/07/07 11:22:30;;;;;;;2.35;1.13;;;30.40;51.70;;;;;;5065562;28;20543;-76
2021/07/07 11:24:57;;;;;;;1.92;1.02;;;30.20;53.60;;;;;;5064750;28;20024;-76
2021/07/07 11:27:23;;;;;;;5.65;1.73;;;30.60;51.60;;;;;;5066541;28;20036;-76
2021/07/07 11:29:48;;;;;;;2.10;1.00;;;30.70;52.50;;;;;;5083877;28;20458;-76
2021/07/07 11:32:29;;;;;;;5.22;1.13;;;30.80;51.60;;;;;;5067468;28;20539;-77
2021/07/07 11:34:59;;;;;;;4.63;1.70;;;30.90;51.80;;;;;;5070394;28;20120;-76
2021/07/07 11:37:29;;;;;;;3.78;1.10;;;31.00;51.90;;;;;;5094061;28;20377;-77
2021/07/07 11:40:14;;;;;;;8.02;2.08;;;31.00;51.70;;;;;;5052807;28;20550;-76
2021/07/07 11:42:58;;;;;;;4.50;1.33;;;31.00;50.60;;;;;;5072599;28;20040;-76
2021/07/07 11:45:29;;;;;;;2.67;1.20;;;31.00;51.30;;;;;;5088935;28;20032;-77
2021/07/07 11:48:56;;;;;;;3.95;1.25;;;31.10;49.60;;;;;;5070170;28;20115;-76
2021/07/07 11:51:05;;;;;;;3.42;1.20;;;30.90;49.30;;;;;;5065448;28;20042;-77
2021/07/07 11:53:46;;;;;;;4.22;1.17;;;30.80;48.80;;;;;;5056213;28;20059;-76
2021/07/07 11:56:14;;;;;;;4.43;1.38;;;30.60;49.30;;;;;;5069488;28;20032;-77
2021/07/07 11:58:44;;;;;;;7.85;1.98;;;31.20;49.60;;;;;;5088736;28;20062;-77
2021/07/07 12:01:23;;;;;;;2.50;1.27;;;31.30;50.20;;;;;;5088462;28;20040;-76
2021/07/07 12:03:58;;;;;;;3.80;1.00;;;31.00;49.00;;;;;;5086419;28;20123;-76
2021/07/07 12:06:33;;;;;;;3.85;1.20;;;31.70;49.70;;;;;;5068542;28;20438;-77
2021/07/07 12:08:59;;;;;;;6.93;1.23;;;32.10;48.00;;;;;;5087695;28;20385;-77
2021/07/07 12:11:24;;;;;;;2.25;0.90;;;32.10;47.50;;;;;;5053813;28;20043;-77
2021/07/07 12:13:51;;;;;;;3.13;0.98;;;32.30;47.00;;;;;;5089512;28;20263;-77
2021/07/07 12:16:24;;;;;;;6.32;1.52;;;32.50;47.20;;;;;;5059282;28;20057;-77
2021/07/07 12:19:03;;;;;;;3.03;0.93;;;32.40;47.00;;;;;;5089373;28;20085;-77
2021/07/07 12:21:30;;;;;;;1.85;0.82;;;32.40;47.60;;;;;;5067134;28;20071;-77
2021/07/07 12:24:00;;;;;;;2.63;1.10;;;32.50;46.70;;;;;;5086157;28;20040;-77
2021/07/07 12:26:29;;;;;;;5.45;0.90;;;32.60;46.40;;;;;;5076103;28;20034;-76
2021/07/07 12:28:57;;;;;;;6.47;1.63;;;32.30;45.80;;;;;;5086331;28;20032;-77
2021/07/07 12:31:23;;;;;;;4.63;1.02;;;32.20;46.50;;;;;;5053454;28;20105;-77
2021/07/07 12:33:54;;;;;;;2.00;1.38;;;32.30;46.70;;;;;;5068472;28;20028;-77
2021/07/07 12:36:28;;;;;;;2.97;1.58;;;32.60;47.10;;;;;;5088737;28;20035;-77
2021/07/07 12:38:56;;;;;;;2.92;1.00;;;32.80;47.40;;;;;;5089792;28;20061;-77
2021/07/07 12:41:31;;;;;;;2.88;1.33;;;33.00;46.80;;;;;;5065737;28;20043;-77
2021/07/07 12:44:09;;;;;;;2.13;1.38;;;33.20;46.50;;;;;;5073656;28;20032;-77
2021/07/07 12:46:47;;;;;;;2.15;1.08;;;33.00;45.20;;;;;;5092020;27;20507;-77